Time;durP1;ratioP1;P1;durP2;ratioP2;P2;SDS_P1;SDS_P2;PMS_P1;PMS_P2;Temp;Humidity;BMP_temperature;BMP_pressure;BME280_temperature;BME280_humidity;BME280_pressure;Samples;Min_cycle;Max_cycle;Signal;HPM_P1;HPM_P2
2023/01/29 00:01:48;;;;;;;7.63;3.45;;;;;;;1.07;65.46;101197.97;6032589;23;20103;-86
2023/01/29 00:04:14;;;;;;;5.53;3.22;;;;;;;1.06;65.58;101193.59;6008587;23;20030;-86
2023/01/29 00:06:41;;;;;;;4.07;2.90;;;;;;;1.08;65.81;101194.44;6113179;23;20037;-85
2023/01/29 00:09:08;;;;;;;5.22;4.15;;;;;;;1.01;66.25;101206.81;6092410;23;20021;-87
2023/01/29 00:11:35;;;;;;;6.22;3.22;;;;;;;0.95;65.84;101209.59;6091586;23;20470;-86
2023/01/29 00:14:01;;;;;;;5.93;3.28;;;;;;;1.03;66.29;101204.16;6116011;23;20017;-86
2023/01/29 00:16:28;;;;;;;4.88;2.92;;;;;;;1.00;66.92;101206.88;6116079;23;20346;-86
2023/01/29 00:18:55;;;;;;;4.47;3.45;;;;;;;1.01;67.05;101198.97;6091008;23;20021;-85
2023/01/29 00:21:22;;;;;;;5.50;3.20;;;;;;;1.06;66.62;101214.53;6092321;23;20025;-86
2023/01/29 00:23:49;;;;;;;7.35;2.75;;;;;;;1.06;65.93;101214.53;6067272;23;20021;-86
2023/01/29 00:26:16;;;;;;;6.60;2.90;;;;;;;1.10;65.37;101221.41;6091245;23;20029;-86
2023/01/29 00:28:46;;;;;;;7.82;3.50;;;;;;;1.15;65.47;101208.22;6091555;23;20044;-86
2023/01/29 00:31:18;;;;;;;9.63;4.10;;;;;;;1.08;65.13;101215.34;6091588;23;20036;-86
2023/01/29 00:33:46;;;;;;;10.45;4.55;;;;;;;1.06;65.73;101220.63;6042821;23;20046;-86
2023/01/29 00:36:14;;;;;;;10.45;3.97;;;;;;;1.07;66.46;101224.13;6067813;23;20022;-86
2023/01/29 00:38:41;;;;;;;6.88;3.63;;;;;;;1.02;66.47;101219.00;6066743;23;20399;-86
2023/01/29 00:46:41;;;;;;;9.98;4.45;;;;;;;1.00;67.30;101209.47;6089145;23;20028;-86
2023/01/29 00:49:08;;;;;;;11.00;4.53;;;;;;;0.99;68.19;101203.41;6019865;23;20406;-86
2023/01/29 00:51:36;;;;;;;11.07;5.00;;;;;;;0.96;68.40;101206.06;6115789;23;20350;-86
2023/01/29 00:54:05;;;;;;;11.52;5.35;;;;;;;0.98;67.95;101196.44;6067599;23;20030;-85
2023/01/29 00:56:35;;;;;;;10.88;5.88;;;;;;;0.97;67.53;101199.09;6091136;23;20025;-86
2023/01/29 00:59:02;;;;;;;12.82;5.85;;;;;;;1.00;67.34;101199.03;6091285;23;20022;-85
2023/01/29 01:04:14;;;;;;;11.85;4.68;;;;;;;1.01;66.95;101198.09;6024893;23;20029;-86
2023/01/29 01:06:41;;;;;;;9.45;5.53;;;;;;;1.02;66.83;101198.06;6065908;23;20088;-85
2023/01/29 01:11:55;;;;;;;18.67;6.03;;;;;;;1.04;66.08;101201.50;6029906;23;20025;-86
2023/01/29 01:14:21;;;;;;;9.18;5.20;;;;;;;1.04;65.52;101192.78;6113935;23;20030;-85
2023/01/29 01:16:48;;;;;;;10.75;5.72;;;;;;;1.06;65.06;101194.47;6067460;23;20355;-85
2023/01/29 01:19:15;;;;;;;10.95;5.45;;;;;;;1.12;64.83;101200.44;6091263;23;20085;-86
2023/01/29 01:21:44;;;;;;;12.55;5.35;;;;;;;1.05;65.51;101194.53;6091471;23;20400;-85
2023/01/29 01:24:11;;;;;;;9.27;4.78;;;;;;;1.03;66.43;101217.25;6091607;23;20036;-85
2023/01/29 01:26:38;;;;;;;9.30;4.63;;;;;;;1.03;66.40;101215.47;6066308;23;20026;-86
2023/01/29 01:29:05;;;;;;;9.40;5.07;;;;;;;0.99;66.66;101212.97;6115693;23;20454;-86
2023/01/29 01:31:32;;;;;;;8.50;4.65;;;;;;;0.95;66.99;101212.22;6089928;23;20029;-85
2023/01/29 01:33:59;;;;;;;8.00;4.25;;;;;;;1.00;66.13;101212.09;6067283;23;20097;-86
2023/01/29 01:36:26;;;;;;;10.00;4.25;;;;;;;0.95;66.89;101200.91;6090864;23;20110;-86
2023/01/29 01:38:53;;;;;;;10.45;4.90;;;;;;;0.95;67.39;101209.59;6088909;23;20029;-85
2023/01/29 01:41:21;;;;;;;7.95;4.38;;;;;;;0.99;67.43;101203.41;6090709;23;20114;-85
2023/01/29 01:43:59;;;;;;;10.07;4.50;;;;;;;0.95;67.03;101195.66;6114956;23;20332;-85
2023/01/29 01:46:34;;;;;;;8.20;4.28;;;;;;;0.94;67.10;101194.81;6065927;23;20048;-85
2023/01/29 01:49:08;;;;;;;6.10;3.42;;;;;;;1.00;65.03;101197.25;6113340;23;20096;-85
2023/01/29 01:51:38;;;;;;;6.18;4.25;;;;;;;1.01;63.69;101198.09;6089821;23;20457;-84
2023/01/29 01:54:08;;;;;;;8.50;4.30;;;;;;;1.08;63.71;101186.59;6115025;23;20445;-83
2023/01/29 01:56:41;;;;;;;7.82;3.60;;;;;;;1.00;62.75;101199.88;6090182;23;20028;-85
2023/01/29 01:59:11;;;;;;;5.78;3.78;;;;;;;1.02;62.53;101200.69;6066156;23;20038;-85
2023/01/29 02:01:40;;;;;;;5.95;4.10;;;;;;;1.01;62.23;101200.72;6067002;23;20032;-85
2023/01/29 02:09:50;;;;;;;7.03;3.78;;;;;;;0.96;64.07;101200.00;6005507;23;20354;-85
2023/01/29 02:12:17;;;;;;;6.15;3.95;;;;;;;0.91;65.42;101197.50;6037315;23;20028;-86
2023/01/29 02:14:44;;;;;;;5.80;3.80;;;;;;;0.94;65.98;101186.09;6090080;23;20029;-86
2023/01/29 02:17:14;;;;;;;8.43;3.70;;;;;;;0.96;66.22;101189.53;6065587;23;20021;-85
2023/01/29 02:20:02;;;;;;;5.97;3.40;;;;;;;0.93;65.91;101192.22;6067662;23;20076;-85
2023/01/29 02:22:55;;;;;;;5.88;4.05;;;;;;;0.88;65.65;101196.72;5998504;23;20391;-85
2023/01/29 02:25:36;;;;;;;8.65;3.55;;;;;;;0.92;65.98;101194.00;6024417;23;20112;-85
2023/01/29 02:28:35;;;;;;;5.05;3.63;;;;;;;0.93;64.60;101203.53;6042340;23;20053;-85
2023/01/29 02:31:17;;;;;;;4.50;3.30;;;;;;;0.99;63.85;101199.91;6023699;23;20076;-86
2023/01/29 02:34:04;;;;;;;8.20;3.50;;;;;;;0.97;63.74;101192.13;6041261;23;20025;-85
2023/01/29 02:36:45;;;;;;;6.78;3.72;;;;;;;0.92;65.45;101196.59;6022203;23;20026;-85
2023/01/29 02:39:23;;;;;;;6.85;3.75;;;;;;;0.89;66.95;101199.31;6065647;23;20081;-84
2023/01/29 02:42:28;;;;;;;8.68;3.70;;;;;;;0.88;67.24;101191.50;6089967;23;20030;-86
2023/01/29 02:44:59;;;;;;;6.00;3.83;;;;;;;1.01;66.63;101187.66;6025706;23;20459;-86
2023/01/29 02:47:39;;;;;;;6.95;4.20;;;;;;;0.96;66.04;101181.69;6066257;23;20029;-86
2023/01/29 02:50:14;;;;;;;5.05;3.60;;;;;;;0.97;66.55;101180.81;6089529;23;20443;-86
2023/01/29 02:53:11;;;;;;;5.38;3.92;;;;;;;0.89;67.46;101181.00;6018823;23;20026;-86
2023/01/29 02:55:54;;;;;;;5.18;3.83;;;;;;;0.92;67.57;101174.84;6024467;23;20030;-86
2023/01/29 02:58:33;;;;;;;6.13;4.00;;;;;;;0.97;66.85;101175.56;6066612;23;20069;-86
2023/01/29 03:01:09;;;;;;;7.40;3.83;;;;;;;0.97;66.52;101165.97;6089531;23;20022;-86
2023/01/29 03:03:39;;;;;;;6.80;4.05;;;;;;;0.95;66.10;101166.91;6038882;23;20076;-86
2023/01/29 03:06:18;;;;;;;6.13;3.63;;;;;;;0.98;65.79;101161.59;6066461;23;20018;-86
2023/01/29 03:08:54;;;;;;;5.65;3.85;;;;;;;0.92;65.17;101169.59;6039524;23;20037;-86
2023/01/29 03:11:21;;;;;;;5.18;3.80;;;;;;;0.93;66.18;101169.53;6041792;23;20029;-86
2023/01/29 03:14:15;;;;;;;8.05;3.53;;;;;;;0.85;66.88;101169.75;6089356;23;20060;-86
2023/01/29 03:16:52;;;;;;;6.55;3.70;;;;;;;0.83;66.64;101173.31;6021475;23;20148;-85
2023/01/29 03:19:38;;;;;;;7.28;4.15;;;;;;;0.88;66.38;101170.56;6065976;23;20446;-86
2023/01/29 03:22:15;;;;;;;9.30;3.78;;;;;;;0.92;66.90;101161.75;5976717;23;20032;-86
2023/01/29 03:33:39;;;;;;;8.02;3.75;;;;;;;0.82;65.65;101155.91;6043436;23;20022;-86
2023/01/29 03:36:15;;;;;;;9.23;3.53;;;;;;;0.79;65.51;101161.19;6065352;23;20443;-86
2023/01/29 03:38:42;;;;;;;8.25;4.15;;;;;;;0.76;65.65;101170.00;6040728;23;20029;-85
2023/01/29 03:41:18;;;;;;;5.45;3.88;;;;;;;0.71;65.23;101176.25;6089456;23;20030;-85
2023/01/29 03:44:20;;;;;;;6.35;3.75;;;;;;;0.63;65.18;101186.91;6090054;23;20026;-84
2023/01/29 03:47:03;;;;;;;10.45;4.10;;;;;;;0.60;66.32;101187.84;5916014;23;20029;-85
2023/01/29 03:49:51;;;;;;;8.40;4.47;;;;;;;0.58;67.12;101188.78;6067309;23;20403;-84
2023/01/29 03:52:31;;;;;;;5.95;3.50;;;;;;;0.47;66.86;101191.66;6020692;23;20042;-85
2023/01/29 03:55:17;;;;;;;11.45;4.68;;;;;;;0.49;67.20;101194.25;6088261;23;20032;-85
2023/01/29 03:57:58;;;;;;;5.28;3.58;;;;;;;0.53;67.72;101194.09;6088696;23;20506;-85
2023/01/29 04:00:28;;;;;;;4.97;3.50;;;;;;;0.51;67.40;101185.47;6043071;23;20014;-85
2023/01/29 04:03:16;;;;;;;4.90;3.20;;;;;;;0.48;66.29;101200.34;6066200;23;20025;-85
2023/01/29 04:05:52;;;;;;;8.52;3.90;;;;;;;0.56;65.89;101199.28;6063446;23;20472;-85
2023/01/29 04:08:28;;;;;;;7.20;4.15;;;;;;;0.52;66.24;101200.25;6018101;23;20022;-85
2023/01/29 04:11:02;;;;;;;6.07;4.40;;;;;;;0.53;66.43;101199.34;6090873;23;20383;-85
2023/01/29 04:13:32;;;;;;;7.72;4.05;;;;;;;0.49;67.54;101197.72;6064420;23;20033;-85
2023/01/29 04:16:00;;;;;;;9.45;4.13;;;;;;;0.45;68.13;101193.44;6066206;23;20081;-85
2023/01/29 04:18:46;;;;;;;6.47;3.88;;;;;;;0.45;68.10;101198.69;6061882;23;20018;-85
2023/01/29 04:21:14;;;;;;;5.63;3.83;;;;;;;0.43;68.16;101203.06;6088640;23;20480;-82
2023/01/29 04:23:42;;;;;;;6.88;4.00;;;;;;;0.49;67.66;101202.94;6086169;23;20029;-85
2023/01/29 04:26:21;;;;;;;5.28;3.72;;;;;;;0.46;67.44;101200.41;6066084;23;20022;-85
2023/01/29 04:28:53;;;;;;;7.32;3.85;;;;;;;0.50;67.53;101204.66;6065214;23;20458;-85
2023/01/29 04:31:22;;;;;;;7.05;3.80;;;;;;;0.54;67.74;101208.06;6089350;23;20021;-85
2023/01/29 04:34:11;;;;;;;9.80;3.97;;;;;;;0.46;68.49;101203.03;6089513;23;20025;-85
2023/01/29 04:36:52;;;;;;;8.23;3.92;;;;;;;0.43;68.54;101206.56;6043258;23;20510;-85
2023/01/29 04:39:27;;;;;;;5.95;4.45;;;;;;;0.48;68.70;101208.19;6065017;23;20450;-85
2023/01/29 04:41:59;;;;;;;8.95;4.43;;;;;;;0.49;68.92;101202.94;6091488;23;20391;-85
2023/01/29 04:44:48;;;;;;;8.40;4.35;;;;;;;0.43;68.98;101203.06;6090635;23;20030;-86
2023/01/29 04:47:35;;;;;;;8.18;4.90;;;;;;;0.50;67.95;101206.41;6048208;23;20081;-86
2023/01/29 04:50:17;;;;;;;7.40;4.60;;;;;;;0.46;67.75;101202.13;6069586;23;20030;-85
2023/01/29 04:52:53;;;;;;;9.18;4.50;;;;;;;0.49;68.09;101209.94;6046399;23;20029;-85
2023/01/29 04:55:25;;;;;;;9.85;5.22;;;;;;;0.49;68.00;101213.41;6089521;23;20354;-85
2023/01/29 04:58:13;;;;;;;6.95;4.50;;;;;;;0.53;68.32;101222.84;6090365;23;20485;-85
2023/01/29 05:00:42;;;;;;;8.18;4.75;;;;;;;0.60;68.30;101227.03;6040511;23;20076;-85
2023/01/29 05:03:11;;;;;;;7.38;4.53;;;;;;;0.53;68.91;101219.38;6115804;23;20033;-84
2023/01/29 05:05:40;;;;;;;8.90;4.43;;;;;;;0.52;69.41;101210.69;6066774;23;20057;-85
2023/01/29 05:08:08;;;;;;;7.95;4.40;;;;;;;0.52;69.22;101202.00;6090642;23;20454;-84
2023/01/29 05:10:35;;;;;;;8.27;4.20;;;;;;;0.57;69.15;101197.53;6115002;23;20085;-85
2023/01/29 05:13:04;;;;;;;7.20;4.35;;;;;;;0.53;68.52;101201.09;6091154;23;20034;-85
2023/01/29 05:15:37;;;;;;;7.38;4.47;;;;;;;0.58;68.32;101197.47;6114488;23;20028;-85
2023/01/29 05:18:07;;;;;;;6.65;4.20;;;;;;;0.51;68.45;101184.59;6090934;23;20022;-85
2023/01/29 05:20:37;;;;;;;9.95;4.47;;;;;;;0.47;69.53;101168.13;6091291;23;20026;-85
2023/01/29 05:23:03;;;;;;;7.38;4.28;;;;;;;0.50;69.70;101160.22;6090960;23;20026;-86
2023/01/29 05:25:31;;;;;;;7.18;4.57;;;;;;;0.44;69.64;101160.38;6091511;23;20320;-85
2023/01/29 05:28:05;;;;;;;10.18;5.30;;;;;;;0.49;69.36;101170.72;6115413;23;20021;-85
2023/01/29 05:30:32;;;;;;;;;;;;;;;0.36;68.82;101172.78;6039376;23;20101;-85
2023/01/29 05:32:59;;;;;;;8.13;4.70;;;;;;;0.48;68.52;101174.22;6067460;23;19924;-85
2023/01/29 05:35:27;;;;;;;9.27;4.20;;;;;;;0.51;68.55;101154.09;6090345;23;20069;-86
2023/01/29 05:37:57;;;;;;;8.60;4.57;;;;;;;0.39;68.73;101163.09;6091028;23;20026;-84
2023/01/29 05:40:24;;;;;;;8.85;4.35;;;;;;;0.39;70.13;101176.19;6114827;23;20030;-82
2023/01/29 05:42:50;;;;;;;7.18;4.28;;;;;;;0.46;70.08;101165.56;6067460;23;20022;-85
2023/01/29 05:45:17;;;;;;;8.13;4.32;;;;;;;0.41;70.46;101163.94;6067083;23;20022;-85
2023/01/29 05:47:45;;;;;;;7.65;4.80;;;;;;;0.36;70.44;101160.56;6042542;23;20022;-85
2023/01/29 05:50:12;;;;;;;8.48;4.50;;;;;;;0.42;69.90;101168.25;6090537;23;20089;-85
2023/01/29 05:52:39;;;;;;;8.88;4.47;;;;;;;0.46;69.74;101163.81;6090493;23;20081;-85
2023/01/29 05:55:08;;;;;;;9.38;4.30;;;;;;;0.39;70.36;101167.47;6114372;23;20450;-86
2023/01/29 05:57:35;;;;;;;7.78;4.07;;;;;;;0.43;70.02;101175.22;6066952;23;20410;-85
2023/01/29 06:00:03;;;;;;;5.97;3.75;;;;;;;0.45;69.62;101182.13;6114872;23;20093;-85
2023/01/29 06:02:38;;;;;;;13.75;4.32;;;;;;;0.43;69.70;101174.31;6022443;23;20022;-86
2023/01/29 06:05:05;;;;;;;8.60;4.45;;;;;;;0.41;69.66;101178.75;6113932;23;20544;-85
2023/01/29 06:07:32;;;;;;;6.43;3.90;;;;;;;0.39;69.35;101181.41;6114299;23;20022;-85
2023/01/29 06:09:58;;;;;;;7.10;4.13;;;;;;;0.42;69.64;101188.31;6115091;23;20394;-85
2023/01/29 06:12:26;;;;;;;8.50;4.45;;;;;;;0.47;69.63;101181.22;6091506;23;20018;-86
2023/01/29 06:14:53;;;;;;;5.60;4.20;;;;;;;0.38;69.88;101182.31;6113840;23;20494;-85
2023/01/29 06:17:19;;;;;;;7.45;4.32;;;;;;;0.40;69.65;101183.09;6088875;23;20101;-84
2023/01/29 06:19:46;;;;;;;6.93;4.40;;;;;;;0.36;69.89;101176.25;6043080;23;20024;-85
2023/01/29 06:22:12;;;;;;;8.70;4.35;;;;;;;0.33;70.39;101171.13;6090363;23;20025;-85
2023/01/29 06:24:39;;;;;;;10.52;4.82;;;;;;;0.38;70.44;101179.69;6088632;23;20451;-85
2023/01/29 06:27:06;;;;;;;9.57;3.83;;;;;;;0.41;70.09;101177.00;6064796;23;20023;-85
2023/01/29 06:29:33;;;;;;;10.55;5.32;;;;;;;0.38;69.96;101184.03;6066239;23;20022;-85
2023/01/29 06:31:59;;;;;;;7.55;4.88;;;;;;;0.41;70.16;101179.63;6115116;23;20446;-86
2023/01/29 06:34:26;;;;;;;9.10;4.90;;;;;;;0.34;70.69;101183.25;6089527;23;20030;-85
2023/01/29 06:36:53;;;;;;;11.02;5.25;;;;;;;0.34;70.45;101178.03;6089498;23;20040;-85
2023/01/29 06:39:20;;;;;;;9.32;5.53;;;;;;;0.37;70.48;101175.34;6115452;23;20020;-86
2023/01/29 06:41:46;;;;;;;6.80;4.60;;;;;;;0.36;71.48;101185.84;6089964;23;20049;-85
2023/01/29 06:44:13;;;;;;;8.98;5.35;;;;;;;0.41;70.37;101192.69;6114144;23;20096;-85
2023/01/29 06:46:40;;;;;;;10.57;5.20;;;;;;;0.35;70.36;101190.19;6114440;23;20022;-85
2023/01/29 06:49:06;;;;;;;7.90;5.28;;;;;;;0.35;70.28;101194.56;6089958;23;20026;-85
2023/01/29 06:51:33;;;;;;;7.63;4.60;;;;;;;0.39;70.24;101193.63;6089920;23;20030;-84
2023/01/29 06:54:00;;;;;;;11.07;5.75;;;;;;;0.38;70.40;101200.59;6090004;23;20022;-86
2023/01/29 06:56:27;;;;;;;7.90;5.45;;;;;;;0.35;70.28;101198.03;6089805;23;20049;-86
2023/01/29 06:58:53;;;;;;;8.13;5.95;;;;;;;0.39;69.94;101204.91;6090488;23;20514;-84
2023/01/29 07:01:20;;;;;;;10.73;5.28;;;;;;;0.41;70.10;101202.28;6090620;23;20021;-86
2023/01/29 07:04:01;;;;;;;10.60;6.28;;;;;;;0.38;70.19;101203.22;6069266;23;20022;-86
2023/01/29 07:06:29;;;;;;;11.13;6.10;;;;;;;0.30;70.52;101202.50;6115391;23;20026;-86
2023/01/29 07:08:55;;;;;;;8.82;5.32;;;;;;;0.36;69.85;101202.38;6114571;23;20029;-85
2023/01/29 07:11:22;;;;;;;11.88;5.38;;;;;;;0.31;70.35;101195.56;6066176;23;20018;-85
2023/01/29 07:13:49;;;;;;;9.30;5.30;;;;;;;0.39;70.57;101191.84;6089473;23;20034;-86
2023/01/29 07:16:17;;;;;;;9.68;5.95;;;;;;;0.29;71.37;101192.97;6090168;23;20097;-85
2023/01/29 07:18:44;;;;;;;9.63;5.30;;;;;;;0.26;71.76;101186.97;6114246;23;20018;-86
2023/01/29 07:21:11;;;;;;;9.10;5.80;;;;;;;0.26;72.02;101180.00;6089414;23;20041;-86
2023/01/29 07:23:38;;;;;;;11.35;5.55;;;;;;;0.27;71.82;101184.31;6115693;23;20074;-85
2023/01/29 07:26:05;;;;;;;9.05;5.95;;;;;;;0.25;72.35;101187.84;6042882;23;20026;-86
2023/01/29 07:28:35;;;;;;;8.32;4.88;;;;;;;0.23;71.55;101193.13;6089365;23;20622;-85
2023/01/29 07:31:03;;;;;;;10.80;5.70;;;;;;;0.37;70.94;101206.69;6113857;23;20676;-85
2023/01/29 07:33:30;;;;;;;9.80;6.40;;;;;;;0.37;70.58;101208.47;6087446;23;20407;-85
2023/01/29 07:35:57;;;;;;;11.77;5.55;;;;;;;0.37;70.63;101214.53;6114385;23;20022;-86
2023/01/29 07:38:24;;;;;;;8.20;5.07;;;;;;;0.38;70.63;101220.63;6114081;23;20030;-86
2023/01/29 07:40:51;;;;;;;9.80;5.85;;;;;;;0.48;70.47;101223.88;6090415;23;20093;-85
2023/01/29 07:43:18;;;;;;;11.95;5.55;;;;;;;0.46;70.65;101212.59;6065596;23;20434;-86
2023/01/29 07:45:45;;;;;;;9.95;5.50;;;;;;;0.41;71.40;101218.81;6112524;23;20014;-86
2023/01/29 07:48:12;;;;;;;9.63;5.07;;;;;;;0.41;71.86;101225.78;6065195;23;20084;-86
2023/01/29 07:50:39;;;;;;;10.57;5.05;;;;;;;0.35;72.10;101225.94;6114626;23;20093;-86
2023/01/29 07:53:06;;;;;;;12.00;5.78;;;;;;;0.39;71.72;101227.59;6090275;23;20441;-87
2023/01/29 07:55:33;;;;;;;9.95;5.78;;;;;;;0.38;72.08;101231.06;6112714;23;20653;-85
2023/01/29 07:58:01;;;;;;;9.75;5.72;;;;;;;0.41;72.34;101234.50;6066438;23;20017;-86
2023/01/29 08:00:30;;;;;;;9.43;5.45;;;;;;;0.43;71.85;101230.09;6090224;23;20014;-86
2023/01/29 08:03:04;;;;;;;11.20;6.75;;;;;;;0.39;71.41;101222.34;6089370;23;20142;-86
2023/01/29 08:05:31;;;;;;;9.20;5.85;;;;;;;0.40;70.89;101232.75;6088695;23;20018;-86
2023/01/29 08:07:58;;;;;;;11.20;6.10;;;;;;;0.42;71.26;101227.50;6065511;23;20026;-86
2023/01/29 08:10:34;;;;;;;12.20;6.20;;;;;;;0.47;71.17;101235.25;6066011;23;20026;-84
2023/01/29 08:13:01;;;;;;;16.00;7.90;;;;;;;0.42;71.52;101225.75;6114998;23;20025;-86
2023/01/29 08:15:28;;;;;;;13.90;7.72;;;;;;;0.39;71.86;101232.81;6115019;23;20028;-86
2023/01/29 08:17:55;;;;;;;12.80;7.43;;;;;;;0.45;71.81;101234.41;6115435;23;20532;-86
2023/01/29 08:20:42;;;;;;;13.20;6.70;;;;;;;0.39;71.97;101224.97;6005926;23;20026;-86
2023/01/29 08:23:14;;;;;;;11.95;7.35;;;;;;;0.38;71.70;101225.84;6114924;23;20030;-86
2023/01/29 08:25:40;;;;;;;13.48;7.80;;;;;;;0.41;71.48;101231.88;6115783;23;20327;-87
2023/01/29 08:28:07;;;;;;;13.95;8.52;;;;;;;0.39;71.74;101231.03;6066953;23;20026;-86
2023/01/29 08:30:34;;;;;;;13.52;8.23;;;;;;;0.45;71.66;101237.88;6091728;23;20056;-86
2023/01/29 08:33:02;;;;;;;15.60;8.85;;;;;;;0.46;72.23;101239.59;6068008;23;20030;-87
2023/01/29 08:35:29;;;;;;;18.98;10.05;;;;;;;0.50;71.48;101235.16;6114154;23;20081;-82
2023/01/29 08:38:02;;;;;;;19.88;10.13;;;;;;;0.50;71.08;101245.59;6090916;23;20029;-84
2023/01/29 08:40:30;;;;;;;19.43;10.57;;;;;;;0.55;71.23;101241.97;6040776;23;20471;-82
2023/01/29 08:43:01;;;;;;;23.85;10.95;;;;;;;0.63;71.30;101236.56;6090856;23;20030;-82
2023/01/29 08:45:32;;;;;;;21.93;12.90;;;;;;;0.60;70.70;101236.66;6090731;23;20101;-82
2023/01/29 08:47:59;;;;;;;18.40;11.50;;;;;;;0.65;70.61;101237.38;6090889;23;20042;-82
2023/01/29 08:50:26;;;;;;;16.40;10.13;;;;;;;0.70;70.55;101230.28;6091990;23;20022;-83
2023/01/29 08:52:57;;;;;;;20.13;8.93;;;;;;;0.65;70.65;101247.84;6115466;23;20587;-81
2023/01/29 08:55:25;;;;;;;13.07;7.80;;;;;;;0.78;69.85;101237.94;6113973;23;20046;-81
2023/01/29 08:57:51;;;;;;;11.52;6.80;;;;;;;0.82;69.20;101239.59;6090324;23;20042;-81
2023/01/29 09:00:18;;;;;;;15.75;7.00;;;;;;;0.85;68.63;101247.34;6067676;23;20122;-81
2023/01/29 09:02:45;;;;;;;10.63;6.03;;;;;;;0.85;68.14;101258.66;6088966;23;20422;-81
2023/01/29 09:05:12;;;;;;;11.27;5.82;;;;;;;0.95;68.21;101271.50;6114421;23;20395;-81
2023/01/29 09:07:39;;;;;;;11.93;5.72;;;;;;;0.87;66.75;101274.31;6090573;23;20022;-81
2023/01/29 09:10:05;;;;;;;10.25;5.55;;;;;;;0.98;67.22;101274.03;6115497;23;20018;-81
2023/01/29 09:12:32;;;;;;;7.38;5.10;;;;;;;0.93;66.60;101255.00;6113120;23;20024;-81
2023/01/29 09:14:59;;;;;;;10.52;6.47;;;;;;;0.95;66.76;101251.44;6117151;23;20032;-81
2023/01/29 09:17:25;;;;;;;9.32;5.90;;;;;;;0.96;66.74;101242.69;6114434;23;20034;-81
2023/01/29 09:19:52;;;;;;;10.55;6.28;;;;;;;0.98;66.44;101219.13;6090489;23;20028;-81
2023/01/29 09:22:19;;;;;;;11.63;6.20;;;;;;;1.01;66.25;101198.09;6090856;23;20014;-81
2023/01/29 09:24:46;;;;;;;9.27;5.60;;;;;;;1.06;66.61;101186.63;6090381;23;20036;-81
2023/01/29 09:27:13;;;;;;;11.13;5.93;;;;;;;1.16;67.15;101192.44;6089154;23;20081;-81
2023/01/29 09:29:39;;;;;;;8.15;5.70;;;;;;;1.19;67.04;101196.75;6091916;23;20354;-82
2023/01/29 09:32:06;;;;;;;10.25;5.88;;;;;;;1.24;66.78;101194.84;6122487;23;20026;-82
2023/01/29 09:34:33;;;;;;;8.70;6.07;;;;;;;1.31;67.34;101185.94;6092462;23;21833;-82
2023/01/29 09:37:00;;;;;;;11.07;5.82;;;;;;;1.32;66.93;101177.19;6090642;23;20049;-82
2023/01/29 09:39:27;;;;;;;8.63;5.68;;;;;;;1.36;66.57;101177.97;6115217;23;20025;-82
2023/01/29 09:42:12;;;;;;;8.07;5.20;;;;;;;1.44;66.64;101175.97;6067025;23;20018;-82
2023/01/29 09:44:52;;;;;;;9.80;5.93;;;;;;;1.56;67.01;101187.84;5999424;23;20025;-82
2023/01/29 09:47:23;;;;;;;9.40;6.35;;;;;;;1.64;66.42;101191.09;6089416;23;20046;-81
2023/01/29 09:50:04;;;;;;;7.47;5.30;;;;;;;1.62;65.11;101187.66;6091277;23;20077;-81
2023/01/29 09:52:34;;;;;;;11.68;6.25;;;;;;;1.58;65.51;101186.91;6089193;23;20068;-82
2023/01/29 09:55:01;;;;;;;7.78;4.25;;;;;;;1.59;65.15;101186.00;6091434;23;20030;-81
2023/01/29 09:57:41;;;;;;;5.10;3.90;;;;;;;1.59;63.79;101186.00;6116986;23;20085;-82
2023/01/29 10:00:15;;;;;;;13.10;4.43;;;;;;;1.62;64.21;101191.13;6066316;23;20018;-81
2023/01/29 10:03:09;;;;;;;7.78;3.92;;;;;;;1.71;64.62;101192.63;6115337;23;20443;-81
2023/01/29 10:05:51;;;;;;;6.95;4.18;;;;;;;1.76;64.25;101202.97;6004565;23;20032;-81
2023/01/29 10:08:44;;;;;;;9.10;4.80;;;;;;;1.79;63.62;101203.72;6067312;23;20121;-81
2023/01/29 10:11:19;;;;;;;6.70;4.40;;;;;;;1.86;64.83;101194.78;5996509;23;20030;-81
2023/01/29 10:14:07;;;;;;;7.60;3.90;;;;;;;1.86;63.71;101189.56;6116240;23;20458;-81
2023/01/29 10:16:48;;;;;;;9.95;4.30;;;;;;;1.88;63.76;101193.00;6044132;23;20033;-81
2023/01/29 10:19:38;;;;;;;7.00;3.92;;;;;;;1.91;63.67;101199.91;6020942;23;20018;-81
2023/01/29 10:22:30;;;;;;;7.07;4.28;;;;;;;1.95;64.37;101202.34;6067090;23;20097;-81
2023/01/29 10:24:59;;;;;;;6.78;3.95;;;;;;;1.97;64.19;101197.06;6070434;23;20026;-81
2023/01/29 10:27:33;;;;;;;5.18;3.78;;;;;;;1.95;63.82;101201.50;6091089;23;20081;-81
2023/01/29 10:30:02;;;;;;;5.82;3.60;;;;;;;1.94;63.60;101211.13;6115963;23;20026;-81
2023/01/29 10:32:30;;;;;;;6.97;4.00;;;;;;;1.93;62.99;101214.66;6090779;23;20026;-81
2023/01/29 10:35:01;;;;;;;8.02;4.55;;;;;;;1.84;62.16;101216.69;6117389;23;20022;-81
2023/01/29 10:37:40;;;;;;;7.32;4.22;;;;;;;1.73;62.18;101211.75;6115314;23;20403;-81
2023/01/29 10:40:28;;;;;;;8.25;5.00;;;;;;;1.61;61.68;101214.75;6090725;23;20018;-81
2023/01/29 10:43:05;;;;;;;7.32;4.22;;;;;;;1.65;62.48;101203.28;6068245;23;20022;-81
2023/01/29 10:45:47;;;;;;;8.70;4.13;;;;;;;1.66;62.65;101203.25;6066296;23;20057;-81
2023/01/29 10:48:26;;;;;;;6.82;4.20;;;;;;;1.66;62.77;101208.47;6065896;23;20049;-81
2023/01/29 10:51:24;;;;;;;6.20;4.00;;;;;;;1.65;62.31;101188.41;6066551;23;20026;-81
2023/01/29 10:54:09;;;;;;;7.65;4.45;;;;;;;1.71;62.95;101185.63;6033330;23;20021;-81
2023/01/29 10:56:54;;;;;;;7.78;4.85;;;;;;;1.77;63.45;101189.81;6068319;23;20018;-81
2023/01/29 10:59:38;;;;;;;8.77;4.97;;;;;;;1.80;63.72;101184.47;6114687;23;20077;-81
2023/01/29 11:02:17;;;;;;;6.43;4.35;;;;;;;1.66;61.62;101177.06;6042473;23;20395;-81
2023/01/29 11:04:44;;;;;;;19.48;5.32;;;;;;;1.76;63.24;101164.56;6115146;23;20033;-81
2023/01/29 11:07:11;;;;;;;11.55;5.30;;;;;;;1.79;63.34;101158.34;6067378;23;20093;-81
2023/01/29 11:09:50;;;;;;;6.28;4.43;;;;;;;1.79;62.83;101151.34;6114479;23;20097;-81
2023/01/29 11:12:20;;;;;;;7.95;4.70;;;;;;;1.82;63.18;101142.53;6065698;23;20025;-81
2023/01/29 11:15:10;;;;;;;7.80;4.65;;;;;;;1.84;63.02;101136.34;6091795;23;20042;-81
2023/01/29 11:17:37;;;;;;;8.75;4.65;;;;;;;1.87;63.10;101133.63;6041960;23;20029;-81
2023/01/29 11:20:05;;;;;;;16.85;6.47;;;;;;;1.95;63.65;101142.09;6091238;23;20018;-81
2023/01/29 11:22:34;;;;;;;8.23;4.60;;;;;;;1.91;63.10;101142.28;6115215;23;20379;-81
2023/01/29 11:25:08;;;;;;;9.63;5.80;;;;;;;1.87;62.39;101138.88;6091144;23;20025;-81
2023/01/29 11:27:43;;;;;;;7.88;5.32;;;;;;;1.94;63.02;101139.53;6116485;23;20037;-81
2023/01/29 11:30:23;;;;;;;8.35;5.50;;;;;;;1.89;62.41;101128.34;6064873;23;20030;-81
2023/01/29 11:32:55;;;;;;;8.68;5.47;;;;;;;1.90;62.65;101133.53;6063957;23;20028;-81
2023/01/29 11:35:24;;;;;;;10.88;5.65;;;;;;;1.77;62.43;101126.97;6091046;23;20025;-81
2023/01/29 11:37:51;;;;;;;11.70;5.80;;;;;;;1.83;62.92;101131.16;6089370;23;20038;-83
2023/01/29 11:40:17;;;;;;;7.93;5.22;;;;;;;1.85;63.02;101124.97;6067504;23;20020;-81
2023/01/29 11:42:45;;;;;;;9.73;5.82;;;;;;;1.90;63.68;101112.56;6114231;23;20032;-82
2023/01/29 11:45:21;;;;;;;9.00;5.65;;;;;;;1.94;63.40;101108.97;6043493;23;20439;-81
2023/01/29 11:47:53;;;;;;;9.52;5.65;;;;;;;1.95;63.12;101107.19;6118437;23;20021;-83
2023/01/29 11:50:23;;;;;;;8.80;5.25;;;;;;;1.99;62.87;101106.19;6078799;23;20025;-83
2023/01/29 11:52:50;;;;;;;8.20;5.68;;;;;;;1.96;62.75;101106.31;6067721;23;20022;-84
2023/01/29 11:55:21;;;;;;;11.02;5.63;;;;;;;1.99;62.48;101100.13;6091649;23;20022;-83
2023/01/29 11:57:50;;;;;;;8.82;5.32;;;;;;;2.03;63.08;101094.69;6115847;23;20411;-83
2023/01/29 12:00:26;;;;;;;7.82;5.05;;;;;;;2.03;62.61;101088.59;6090670;23;20022;-83
2023/01/29 12:02:52;;;;;;;11.75;5.55;;;;;;;2.10;63.11;101090.97;6091163;23;20049;-83
2023/01/29 12:05:22;;;;;;;7.63;4.65;;;;;;;2.16;63.30;101074.19;6115288;23;20508;-88
2023/01/29 12:08:00;;;;;;;9.25;5.25;;;;;;;2.21;63.30;101061.78;6090678;23;20017;-79
2023/01/29 12:10:41;;;;;;;9.95;5.32;;;;;;;2.21;62.58;101051.28;6026488;23;20025;-80
2023/01/29 12:13:18;;;;;;;7.40;4.70;;;;;;;2.25;63.00;101049.44;6090138;23;20045;-79
2023/01/29 12:15:47;;;;;;;7.90;5.05;;;;;;;2.28;63.68;101037.06;6064688;23;20025;-79
2023/01/29 12:18:37;;;;;;;8.38;5.18;;;;;;;2.24;62.92;101029.38;6041834;23;20097;-80
2023/01/29 12:21:14;;;;;;;9.88;5.15;;;;;;;2.28;62.87;101021.34;6047149;23;20150;-79